Map

Track Data

SID SEASON NUMBER BASIN SUBBASIN NAME ISO_TIME NATURE LAT LON WMO_WIND WMO_PRES WMO_AGENCY TRACK_TYPE DIST2LAND LANDFALL IFLAG USA_AGENCY USA_ATCF_ID USA_LAT USA_LON USA_RECORD USA_STATUS USA_WIND USA_PRES USA_SSHS USA_R34_NE USA_R34_SE USA_R34_SW USA_R34_NW USA_R50_NE USA_R50_SE USA_R50_SW USA_R50_NW USA_R64_NE USA_R64_SE USA_R64_SW USA_R64_NW USA_POCI USA_ROCI USA_RMW USA_EYE TOKYO_LAT TOKYO_LON TOKYO_GRADE TOKYO_WIND TOKYO_PRES TOKYO_R50_DIR TOKYO_R50_LONG TOKYO_R50_SHORT TOKYO_R30_DIR TOKYO_R30_LONG TOKYO_R30_SHORT TOKYO_LAND CMA_LAT CMA_LON CMA_CAT CMA_WIND CMA_PRES HKO_LAT HKO_LON HKO_CAT HKO_WIND HKO_PRES NEWDELHI_LAT NEWDELHI_LON NEWDELHI_GRADE NEWDELHI_WIND NEWDELHI_PRES NEWDELHI_CI NEWDELHI_DP NEWDELHI_POCI REUNION_LAT REUNION_LON REUNION_TYPE REUNION_WIND REUNION_PRES REUNION_TNUM REUNION_CI REUNION_RMW REUNION_R34_NE REUNION_R34_SE REUNION_R34_SW REUNION_R34_NW REUNION_R50_NE REUNION_R50_SE REUNION_R50_SW REUNION_R50_NW REUNION_R64_NE REUNION_R64_SE REUNION_R64_SW REUNION_R64_NW BOM_LAT BOM_LON BOM_TYPE BOM_WIND BOM_PRES BOM_TNUM BOM_CI BOM_RMW BOM_R34_NE BOM_R34_SE BOM_R34_SW BOM_R34_NW BOM_R50_NE BOM_R50_SE BOM_R50_SW BOM_R50_NW BOM_R64_NE BOM_R64_SE BOM_R64_SW BOM_R64_NW BOM_ROCI BOM_POCI BOM_EYE BOM_POS_METHOD BOM_PRES_METHOD NADI_LAT NADI_LON NADI_CAT NADI_WIND NADI_PRES WELLINGTON_LAT WELLINGTON_LON WELLINGTON_WIND WELLINGTON_PRES DS824_LAT DS824_LON DS824_STAGE DS824_WIND DS824_PRES TD9636_LAT TD9636_LON TD9636_STAGE TD9636_WIND TD9636_PRES TD9635_LAT TD9635_LON TD9635_WIND TD9635_PRES TD9635_ROCI NEUMANN_LAT NEUMANN_LON NEUMANN_CLASS NEUMANN_WIND NEUMANN_PRES MLC_LAT MLC_LON MLC_CLASS MLC_WIND MLC_PRES USA_GUST BOM_GUST BOM_GUST_PER REUNION_GUST REUNION_GUST_PER USA_SEAHGT USA_SEARAD_NE USA_SEARAD_SE USA_SEARAD_SW USA_SEARAD_NW STORM_SPEED STORM_DIR
1961001S18039 1961 2 SI MM CLARA 1961-01-01 00:00:00 TS -18.1000 39.4000 main 127 127 ____________O_ -1 -18.1000 39.4000 TC 25 3 195
1961001S18039 1961 2 SI MM CLARA 1961-01-01 03:00:00 TS -18.2625 39.3600 main 148 137 ____________P_ -1 -18.2625 39.3600 TC 27 1 200
1961001S18039 1961 2 SI MM CLARA 1961-01-01 06:00:00 TS -18.2286 39.3571 reunion main 137 135 O____O___OO_O_ jtwc_sh SH101961 -18.1000 39.4000 -1 -18.1000 39.4000 99 9.90000 -18.1000 39.4000 TC 25 -18.1000 39.4000 7 -18.4000 39.3000 TC 30 1 239
1961001S18039 1961 2 SI MM CLARA 1961-01-01 09:00:00 TS -18.2979 39.3051 main 147 147 P____P___PP_P_ SH101961 -18.1900 39.3600 -1 -18.1900 39.3600 99 -18.1900 39.3600 TC 25 -18.2172 39.3359 7 -18.5000 39.2075 TC 32 2 214
1961001S18039 1961 2 SI MM CLARA 1961-01-01 12:00:00 TS -18.3820 39.2439 reunion main 154 154 O____O___OP_O_ jtwc_sh SH101961 -18.3000 39.3000 -1 -18.3000 39.3000 99 9.90000 -18.3000 39.3000 TC 25 -18.3375 39.2675 7 -18.6000 39.1000 TC 35 3 213
1961001S18039 1961 2 SI MM CLARA 1961-01-01 15:00:00 TS -18.5068 39.1626 main 165 162 P____P___PP_P_ SH101961 -18.4425 39.2075 -1 -18.4425 39.2075 99 -18.4425 39.2075 TC 30 -18.4640 39.1903 7 -18.7425 39.0000 TC 35 3 212
1961001S18039 1961 2 SI MM CLARA 1961-01-01 18:00:00 TS -18.6600 39.0600 reunion main 183 181 O____O___OO_O_ jtwc_sh SH101961 -18.6000 39.1000 -1 -18.6000 39.1000 2 9.90000 -18.6000 39.1000 TC 35 -18.6000 39.1000 2 -18.9000 38.9000 TC 35 4 212
1961001S18039 1961 2 SI MM CLARA 1961-01-01 21:00:00 TS -18.8109 38.9575 main 192 187 P____P___PP_P_ SH101961 -18.7500 39.0000 -1 -18.7500 39.0000 2 -18.7500 39.0000 TC 35 -18.7469 38.9951 2 -19.0575 38.7925 TC 35 4 213
1961001S18039 1961 2 SI MM CLARA 1961-01-02 00:00:00 TS -18.9600 38.8570 reunion main 208 204 O____O___OP_O_ jtwc_sh SH101961 -18.9000 38.9000 -1 -18.9000 38.9000 2 9.90000 -18.9000 38.9000 TC 35 -18.9001 38.8851 2 -19.2000 38.7000 TC 35 3 213
1961001S18039 1961 2 SI MM CLARA 1961-01-02 03:00:00 TS -19.1036 38.7590 main 214 211 P____P___PP_P_ SH101961 -19.0575 38.7925 -1 -19.0500 38.7925 2 -19.0575 38.7925 TC 35 -19.0532 38.7826 2 -19.3000 38.6350 TC 35 3 211
1961001S18039 1961 2 SI MM CLARA 1961-01-02 06:00:00 TS -19.2400 38.6800 reunion main 217 215 O____O___OO_O_ jtwc_sh SH101961 -19.2000 38.7000 -1 -19.2000 38.7000 2 9.90000 -19.2000 38.7000 TC 35 -19.2000 38.7000 2 -19.4000 38.6000 TC 35 3 206
1961001S18039 1961 2 SI MM CLARA 1961-01-02 09:00:00 TS -19.3656 38.6293 main 222 222 P____P___PP_P_ SH101961 -19.3000 38.6350 -1 -19.3575 38.6350 2 -19.3000 38.6350 TC 35 -19.3281 38.6493 2 -19.5425 38.5925 TC 35 3 196
1961001S18039 1961 2 SI MM CLARA 1961-01-02 12:00:00 TS -19.4900 38.6040 reunion main 229 229 O____O___OP_O_ jtwc_sh SH101961 -19.4000 38.6000 -1 -19.5000 38.6000 2 9.90000 -19.4000 38.6000 TC 35 -19.4500 38.6199 2 -19.7000 38.6000 TC 35 3 190
1961001S18039 1961 2 SI MM CLARA 1961-01-02 15:00:00 TS -19.6214 38.5966 main 237 237 P____P___PP_P_ SH101961 -19.5425 38.5925 -1 -19.6000 38.5925 2 -19.5425 38.5925 TC 35 -19.5719 38.6056 2 -19.8500 38.6000 TC 35 3 185
1961001S18039 1961 2 SI MM CLARA 1961-01-02 18:00:00 TS -19.7600 38.6000 reunion main 252 252 O____O___OO_O_ jtwc_sh SH101961 -19.7000 38.6000 -1 -19.7000 38.6000 2 9.90000 -19.7000 38.6000 TC 35 -19.7000 38.6000 2 -20.0000 38.6000 TC 35 3 0
1961001S18039 1961 2 SI MM CLARA 1961-01-02 21:00:00 TS -19.9079 38.5954 main 260 260 P____P___PP_P_ SH101961 -19.8500 38.6000 -1 -19.8425 38.6000 2 -19.8500 38.6000 TC 35 -19.8469 38.5847 2 -20.1500 38.5925 TC 37 3 0
1961001S18039 1961 2 SI MM CLARA 1961-01-03 00:00:00 TS -20.0600 38.5955 reunion main 275 275 O____O___OP_O_ jtwc_sh SH101961 -20.0000 38.6000 -1 -20.0000 38.6000 2 9.90000 -20.0000 38.6000 TC 35 -20.0000 38.5775 2 -20.3000 38.6000 TC 40 3 176
1961001S18039 1961 2 SI MM CLARA 1961-01-03 03:00:00 TS -20.2136 38.6003 main 281 281 P____P___PP_P_ SH101961 -20.1500 38.5925 -1 -20.1575 38.5925 2 -20.1500 38.5925 TC 35 -20.1531 38.5816 2 -20.4575 38.6425 TC 42 3 0
1961001S18039 1961 2 SI MM CLARA 1961-01-03 06:00:00 TS -20.3600 38.6200 reunion main 293 293 O____O___OO_O_ jtwc_sh SH101961 -20.3000 38.6000 -1 -20.3000 38.6000 2 9.90000 -20.3000 38.6000 TC 35 -20.3000 38.6000 2 -20.6000 38.7000 TC 45 3 170
1961001S18039 1961 2 SI MM CLARA 1961-01-03 09:00:00 TS -20.4918 38.6626 main 308 308 P____P___PP_P_ SH101961 -20.4575 38.6425 -1 -20.4000 38.6425 2 -20.4575 38.6425 TC 35 -20.4363 38.6356 2 -20.7075 38.7500 TC 45 3 161
1961001S18039 1961 2 SI MM CLARA 1961-01-03 12:00:00 TS -20.6130 38.7170 reunion main 315 315 O____O___OP_O_ jtwc_sh SH101961 -20.6000 38.7000 -1 -20.5000 38.7000 2 9.90000 -20.6000 38.7000 TC 35 -20.5650 38.6849 2 -20.8000 38.8000 TC 45 3 158
1961001S18039 1961 2 SI MM CLARA 1961-01-03 15:00:00 TS -20.7302 38.7684 main 330 330 P____P___PP_P_ SH101961 -20.7075 38.7500 -1 -20.6500 38.7500 2 -20.7075 38.7500 TC 35 -20.6863 38.7418 2 -20.9000 38.8500 TC 45 2 157
1961001S18039 1961 2 SI MM CLARA 1961-01-03 18:00:00 TS -20.8400 38.8200 reunion main 336 336 O____O___OO_O_ jtwc_sh SH101961 -20.8000 38.8000 -1 -20.8000 38.8000 2 9.90000 -20.8000 38.8000 TC 35 -20.8000 38.8000 2 -21.0000 38.9000 TC 45 2 158
1961001S18039 1961 2 SI MM CLARA 1961-01-03 21:00:00 TS -20.9312 38.8576 main 352 352 P____P___PP_P_ SH101961 -20.9000 38.8500 -1 -20.9075 38.8500 2 -20.9000 38.8500 TC 35 -20.8786 38.8179 2 -21.0699 38.9202 TC 42 2 158
1961001S18039 1961 2 SI MM CLARA 1961-01-04 00:00:00 TS -21.0309 38.9081 reunion main 359 359 O____O___OP_O_ jtwc_sh SH101961 -21.0000 38.9000 -1 -21.0000 38.9000 2 9.90000 -21.0000 38.9000 TC 35 -20.9547 38.8407 2 -21.2000 39.0000 TC 40 3 153
1961001S18039 1961 2 SI MM CLARA 1961-01-04 03:00:00 TS -21.1542 38.9792 main 378 378 P____P___PP_P_ SH101961 -21.0775 38.9276 -1 -21.0850 38.9276 2 -21.0775 38.9276 TC 35 -21.0535 38.8931 2 -21.4776 39.2198 TC 37 3 149
1961001S18039 1961 2 SI MM CLARA 1961-01-04 06:00:00 TS -21.3200 39.1000 reunion main 385 382 O____O___OO_O_ jtwc_sh SH101961 -21.2000 39.0000 -1 -21.2000 39.0000 2 9.90000 -21.2000 39.0000 TC 35 -21.2000 39.0000 2 -21.8000 39.5000 TC 35 5 144
1961001S18039 1961 2 SI MM CLARA 1961-01-04 09:00:00 TS -21.5400 39.2829 main 399 383 P____P___PP_P_ SH101961 -21.4200 39.1625 -1 -21.3625 39.1626 2 -21.4200 39.1625 TC 35 -21.4329 39.1840 2 -22.0649 39.7426 TC 35 6 141
1961001S18039 1961 2 SI MM CLARA 1961-01-04 12:00:00 TS -21.8025 39.5249 reunion main 383 350 O____O___OP_O_ jtwc_sh SH101961 -21.7000 39.4000 -1 -21.6000 39.4000 2 9.90000 -21.7000 39.4000 TC 35 -21.7126 39.4245 2 -22.3000 40.0000 TC 35 7 139
1961001S18039 1961 2 SI MM CLARA 1961-01-04 15:00:00 TS -22.0907 39.8056 main 350 318 P____P___PP_P_ SH101961 -22.0000 39.6775 -1 -21.9425 39.6774 2 -22.0000 39.6775 TC 35 -22.0110 39.7028 2 -22.5000 40.2926 TC 35 8 136
1961001S18039 1961 2 SI MM CLARA 1961-01-04 18:00:00 TS -22.3800 40.1200 reunion main 318 289 O____O___OO_O_ jtwc_sh SH101961 -22.3000 40.0000 -1 -22.3000 40.0000 2 9.90000 -22.3000 40.0000 TC 35 -22.3000 40.0000 2 -22.7000 40.6000 TC 35 8 132
1961001S18039 1961 2 SI MM CLARA 1961-01-04 21:00:00 TS -22.6393 40.4633 main 279 252 P____P___PP_P_ SH101961 -22.5651 40.3575 -1 -22.5726 40.3576 2 -22.5651 40.3575 TC 35 -22.5437 40.3140 2 -22.9501 40.9299 TC 35 8 129
1961001S18039 1961 2 SI MM CLARA 1961-01-05 00:00:00 TS -22.8746 40.7875 reunion main 255 238 O____O___OP_O_ jtwc_sh SH101961 -22.8000 40.7000 -1 -22.8000 40.7000 2 9.90000 -22.8000 40.7000 TC 35 -22.7729 40.6373 2 -23.2000 41.2000 TC 35 7 130
1961001S18039 1961 2 SI MM CLARA 1961-01-05 03:00:00 TS -23.0841 41.0440 main 242 228 P____P___PP_P_ SH101961 -23.0075 40.9876 -1 -23.0074 40.9801 2 -23.0075 40.9876 TC 35 -22.9906 40.9420 2 -23.4074 41.3227 TC 35 6 134
1961001S18039 1961 2 SI MM CLARA 1961-01-05 06:00:00 TS -23.2800 41.2400 reunion main 231 215 O____O___OO_O_ jtwc_sh SH101961 -23.2000 41.2000 -1 -23.2000 41.2000 2 9.90000 -23.2000 41.2000 TC 35 -23.2000 41.2000 2 -23.6000 41.4000 TC 35 5 142
1961001S18039 1961 2 SI MM CLARA 1961-01-05 09:00:00 TS -23.4798 41.3843 main 218 213 P____P___PP_P_ SH101961 -23.3999 41.3152 -1 -23.4000 41.3726 2 -23.3999 41.3152 TC 35 -23.4068 41.3759 2 -23.7925 41.5425 TC 35 5 149
1961001S18039 1961 2 SI MM CLARA 1961-01-05 12:00:00 TS -23.6814 41.5006 reunion main 213 203 O____O___OP_O_ jtwc_sh SH101961 -23.6000 41.4000 -1 -23.6000 41.5000 2 9.90000 -23.6000 41.4000 TC 35 -23.6071 41.5032 2 -24.0000 41.7000 TC 35 5 151
1961001S18039 1961 2 SI MM CLARA 1961-01-05 15:00:00 TS -23.8923 41.6338 main 204 194 P____P___PP_P_ SH101961 -23.8000 41.5500 -1 -23.8000 41.6076 2 -23.8000 41.5500 TC 35 -23.8038 41.6039 2 -24.2575 41.8574 TC 35 5 150
1961001S18039 1961 2 SI MM CLARA 1961-01-05 18:00:00 TS -24.0789 41.7474 reunion main 198 188 O____O___OO_O_ jtwc_sh SH101961 -24.0000 41.7000 -1 -24.0000 41.7000 2 9.90000 -24.0000 41.7000 TC 35 -24.0000 41.7000 2 -24.5000 42.0000 TC 35 4 153
1961001S18039 1961 2 SI MM CLARA 1961-01-05 21:00:00 TS -24.2520 41.8349 main 193 183 P____P___PP_P_ SH101961 -24.2000 41.8001 -1 -24.2000 41.7926 2 -24.2000 41.8001 TC 35 -24.1980 41.8093 2 -24.6725 42.1100 TC 35 4 154
1961001S18039 1961 2 SI MM CLARA 1961-01-06 00:00:00 TS -24.4303 41.9304 reunion main 185 177 O____O___OP_O_ jtwc_sh SH101961 -24.4000 41.9000 -1 -24.4000 41.9000 2 9.90000 -24.4000 41.9000 TC 35 -24.3978 41.9319 2 -24.8000 42.2000 TC 35 4 151
1961001S18039 1961 2 SI MM CLARA 1961-01-06 03:00:00 TS -24.5997 42.0445 main 180 161 P____P___PP___ SH101961 -24.6001 42.0374 -1 -24.6000 42.0399 2 -24.6001 42.0374 TC 35 -24.5986 42.0636 2 TC 4 147
1961001S18039 1961 2 SI MM CLARA 1961-01-06 06:00:00 TS -24.8000 42.2000 reunion main 163 O____O___OO___ jtwc_sh SH101961 -24.8000 42.2000 -1 -24.8000 42.2000 2 9.90000 -24.8000 42.2000 TC 35 -24.8000 42.2000 2 5 144

About IBTrACS Database

This database is a web-friendly format of International Best Track Archive for Climate Stewardship (IBTrACS), a global best track data archive curated by NOAA dating back to 1842.

Updated: 2021-10-21